createdAt,value
2023-04-19T00:01:52.059Z,11.51
2023-04-19T00:04:21.221Z,11.46
2023-04-19T00:06:52.361Z,11.47
2023-04-19T00:09:21.187Z,11.47
2023-04-19T00:11:51.307Z,11.51
2023-04-19T00:14:19.581Z,11.56
2023-04-19T00:16:47.748Z,11.60
2023-04-19T00:19:16.344Z,11.63
2023-04-19T00:21:44.883Z,11.68
2023-04-19T00:24:16.390Z,11.70
2023-04-19T00:26:45.359Z,11.73
2023-04-19T00:29:13.953Z,11.75
2023-04-19T00:31:42.356Z,11.77
2023-04-19T00:34:10.770Z,11.77
2023-04-19T00:36:41.923Z,11.70
2023-04-19T00:39:11.990Z,11.60
2023-04-19T00:41:43.414Z,11.52
2023-04-19T00:44:11.821Z,11.45
2023-04-19T00:46:40.969Z,11.45
2023-04-19T00:49:10.282Z,11.42
2023-04-19T00:51:39.250Z,11.40
2023-04-19T00:54:08.597Z,11.36
2023-04-19T00:56:36.664Z,11.38
2023-04-19T00:59:05.117Z,11.38
2023-04-19T01:01:34.570Z,11.37
2023-04-19T01:04:03.050Z,11.39
2023-04-19T01:06:35.286Z,11.38
2023-04-19T01:09:03.597Z,11.41
2023-04-19T01:11:32.003Z,11.47
2023-04-19T01:14:00.256Z,11.51
2023-04-19T01:16:30.326Z,11.52
2023-04-19T01:18:58.825Z,11.54
2023-04-19T01:21:29.881Z,11.52
2023-04-19T01:23:58.060Z,11.49
2023-04-19T01:26:27.242Z,11.53
2023-04-19T01:28:55.439Z,11.56
2023-04-19T01:31:23.629Z,11.56
2023-04-19T01:33:51.822Z,11.52
2023-04-19T01:36:20.058Z,11.47
2023-04-19T01:38:48.531Z,11.40
2023-04-19T01:41:17.107Z,11.40
2023-04-19T01:43:45.087Z,11.40
2023-04-19T01:46:13.194Z,11.38
2023-04-19T01:48:41.699Z,11.38
2023-04-19T01:51:10.364Z,11.35
2023-04-19T01:53:38.567Z,11.31
2023-04-19T01:56:07.567Z,11.33
2023-04-19T01:58:35.987Z,11.32
2023-04-19T02:01:04.142Z,11.32
2023-04-19T02:03:33.247Z,11.23
2023-04-19T02:06:02.440Z,11.27
2023-04-19T02:08:34.384Z,11.27
2023-04-19T02:11:08.550Z,11.26
2023-04-19T02:13:37.262Z,11.24
2023-04-19T02:16:08.274Z,11.24
2023-04-19T02:18:40.902Z,11.24
2023-04-19T02:21:11.383Z,11.26
2023-04-19T02:23:39.604Z,11.28
2023-04-19T02:26:07.721Z,11.28
2023-04-19T02:28:36.017Z,11.25
2023-04-19T02:31:07.688Z,11.23
2023-04-19T02:33:36.647Z,11.14
2023-04-19T02:36:06.129Z,11.21
2023-04-19T02:38:35.393Z,11.23
2023-04-19T02:41:05.035Z,11.21
2023-04-19T02:43:33.751Z,11.27
2023-04-19T02:46:02.610Z,11.31
2023-04-19T02:48:30.845Z,11.29
2023-04-19T02:51:00.758Z,11.26
2023-04-19T02:53:30.082Z,11.24
2023-04-19T02:56:00.743Z,11.27
2023-04-19T02:58:29.332Z,11.30
2023-04-19T03:01:00.202Z,11.32
2023-04-19T03:03:29.473Z,11.31
2023-04-19T03:05:59.010Z,11.25
2023-04-19T03:08:27.740Z,11.20
2023-04-19T03:11:00.216Z,11.27
2023-04-19T03:13:29.383Z,11.24
2023-04-19T03:15:58.227Z,11.32
2023-04-19T03:18:26.497Z,11.34
2023-04-19T03:20:54.918Z,11.47
2023-04-19T03:23:23.479Z,11.48
2023-04-19T03:25:51.609Z,11.46
2023-04-19T03:28:22.040Z,11.48
2023-04-19T03:30:50.467Z,11.41
2023-04-19T03:33:18.905Z,11.44
2023-04-19T03:35:47.030Z,11.47
2023-04-19T03:38:15.249Z,11.55
2023-04-19T03:40:43.605Z,11.59
2023-04-19T03:43:12.101Z,11.68
2023-04-19T03:45:40.331Z,11.82
2023-04-19T03:48:08.688Z,11.94
2023-04-19T03:50:36.857Z,12.05
2023-04-19T03:53:06.103Z,12.11
2023-04-19T03:55:35.354Z,12.48
2023-04-19T03:58:03.755Z,13.22
2023-04-19T04:00:32.359Z,13.13
2023-04-19T04:03:00.616Z,12.97
2023-04-19T04:05:29.434Z,12.90
2023-04-19T04:07:58.437Z,13.11
2023-04-19T04:10:27.143Z,13.22
2023-04-19T04:12:55.333Z,13.30
2023-04-19T04:15:23.516Z,13.32
2023-04-19T04:17:51.990Z,13.29
2023-04-19T04:20:20.169Z,13.28
2023-04-19T04:22:48.270Z,13.06
2023-04-19T04:25:21.134Z,12.94
2023-04-19T04:27:53.449Z,12.81
2023-04-19T04:30:21.503Z,12.68
2023-04-19T04:32:51.635Z,12.63
2023-04-19T04:35:19.805Z,12.34
2023-04-19T04:37:49.118Z,11.67
2023-04-19T04:40:17.428Z,11.26
2023-04-19T04:42:46.247Z,11.17
2023-04-19T04:45:14.715Z,11.08
2023-04-19T04:47:43.013Z,10.97
2023-04-19T04:50:31.950Z,11.09
2023-04-19T04:53:00.029Z,11.18
2023-04-19T04:55:32.220Z,11.29
2023-04-19T04:58:00.626Z,11.39
2023-04-19T05:00:28.993Z,11.43
2023-04-19T05:02:57.580Z,11.48
2023-04-19T05:05:27.290Z,11.66
2023-04-19T05:07:58.857Z,11.96
2023-04-19T05:10:27.390Z,12.42
2023-04-19T05:12:55.858Z,13.00
2023-04-19T05:15:24.401Z,13.96
2023-04-19T05:17:52.808Z,14.75
2023-04-19T05:20:22.507Z,15.19
2023-04-19T05:22:51.062Z,15.41
2023-04-19T05:25:19.032Z,15.81
2023-04-19T05:27:49.101Z,15.91
2023-04-19T05:30:17.317Z,16.21
2023-04-19T05:32:45.258Z,16.86
2023-04-19T05:35:13.239Z,16.67
2023-04-19T05:37:42.321Z,16.42
2023-04-19T05:40:11.331Z,16.23
2023-04-19T05:42:39.925Z,16.21
2023-04-19T05:45:09.906Z,16.33
2023-04-19T05:47:38.877Z,16.23
2023-04-19T05:50:07.582Z,16.40
2023-04-19T05:52:36.123Z,16.43
2023-04-19T05:55:04.919Z,16.56
2023-04-19T05:57:33.983Z,16.46
2023-04-19T06:00:02.586Z,16.27
2023-04-19T06:02:31.527Z,16.24
2023-04-19T06:05:02.586Z,16.20
2023-04-19T06:07:40.715Z,16.11
2023-04-19T06:10:15.806Z,15.94
2023-04-19T06:12:44.070Z,16.21
2023-04-19T06:15:12.264Z,16.96
2023-04-19T06:17:43.481Z,16.45
2023-04-19T06:20:12.807Z,15.98
2023-04-19T06:22:49.162Z,15.67
2023-04-19T06:25:17.565Z,15.61
2023-04-19T06:27:49.216Z,15.49
2023-04-19T06:30:20.114Z,15.58
2023-04-19T06:32:48.413Z,15.75
2023-04-19T06:35:16.767Z,15.74
2023-04-19T06:37:45.255Z,16.09
2023-04-19T06:40:13.765Z,16.40
2023-04-19T06:42:42.113Z,16.49
2023-04-19T06:45:10.869Z,16.84
2023-04-19T06:47:39.657Z,17.03
2023-04-19T06:50:11.515Z,17.19
2023-04-19T06:52:40.587Z,17.11
2023-04-19T06:55:10.298Z,17.02
2023-04-19T06:57:38.996Z,16.61
2023-04-19T07:00:08.653Z,16.29
2023-04-19T07:02:37.159Z,16.29
2023-04-19T07:05:06.390Z,16.46
2023-04-19T07:07:34.761Z,17.04
2023-04-19T07:10:06.038Z,18.07
2023-04-19T07:12:34.144Z,18.95
2023-04-19T07:15:02.377Z,19.29
2023-04-19T07:17:31.954Z,19.75
2023-04-19T07:20:00.128Z,20.07
2023-04-19T07:22:28.238Z,20.08
2023-04-19T07:24:56.692Z,19.52
2023-04-19T07:27:27.106Z,19.47
2023-04-19T07:29:55.317Z,19.77
2023-04-19T07:32:23.326Z,19.90
2023-04-19T07:34:52.199Z,20.16
2023-04-19T07:37:20.433Z,20.31
2023-04-19T07:39:48.554Z,19.90
2023-04-19T07:42:16.813Z,19.71
2023-04-19T07:44:47.695Z,19.76
2023-04-19T07:47:16.015Z,19.86
2023-04-19T07:49:47.508Z,19.84
2023-04-19T07:52:15.786Z,19.87
2023-04-19T07:54:43.930Z,19.61
2023-04-19T07:57:12.247Z,19.67
2023-04-19T07:59:40.419Z,19.49
2023-04-19T08:02:12.496Z,19.20
2023-04-19T08:04:41.142Z,19.11
2023-04-19T08:07:10.022Z,18.74
2023-04-19T08:09:38.326Z,18.82
2023-04-19T08:12:06.654Z,18.76
2023-04-19T08:14:43.706Z,18.64
2023-04-19T08:19:50.916Z,19.01
2023-04-19T08:22:20.956Z,19.08
2023-04-19T08:24:53.098Z,18.97
2023-04-19T08:27:22.289Z,18.72
2023-04-19T08:29:53.486Z,18.57
2023-04-19T08:32:24.019Z,18.86
2023-04-19T08:34:52.073Z,19.28
2023-04-19T08:37:20.390Z,19.62
2023-04-19T08:39:48.291Z,19.71
2023-04-19T08:42:28.661Z,19.76
2023-04-19T08:47:48.221Z,19.43
2023-04-19T08:50:33.123Z,19.14
2023-04-19T08:53:24.024Z,19.12
2023-04-19T08:56:14.739Z,18.97
2023-04-19T09:01:33.780Z,19.37
2023-04-19T09:04:26.086Z,19.75
2023-04-19T09:06:56.669Z,19.93
2023-04-19T09:09:37.056Z,20.08
2023-04-19T09:12:18.813Z,20.39
2023-04-19T09:17:19.646Z,20.55
2023-04-19T09:19:49.926Z,20.08
2023-04-19T09:22:20.005Z,19.97
2023-04-19T09:27:27.497Z,19.96
2023-04-19T09:30:03.704Z,20.10
2023-04-19T09:32:47.924Z,20.23
2023-04-19T09:35:16.316Z,20.26
2023-04-19T09:38:05.786Z,20.21
2023-04-19T09:40:38.819Z,19.69
2023-04-19T09:43:33.044Z,19.60
2023-04-19T09:45:58.192Z,19.60
2023-04-19T09:48:26.821Z,19.42
2023-04-19T09:51:03.796Z,19.56
2023-04-19T09:53:37.433Z,19.31
2023-04-19T09:56:06.673Z,19.40
2023-04-19T09:58:48.983Z,19.56
2023-04-19T10:01:21.021Z,19.41
2023-04-19T10:03:51.505Z,19.25
2023-04-19T10:08:56.175Z,20.16
2023-04-19T10:11:27.706Z,20.85
2023-04-19T10:13:58.409Z,20.92
2023-04-19T10:16:27.629Z,20.95
2023-04-19T10:18:56.087Z,20.80
2023-04-19T10:21:24.416Z,20.97
2023-04-19T10:23:52.511Z,21.15
2023-04-19T10:26:22.965Z,20.73
2023-04-19T10:28:51.226Z,20.47
2023-04-19T10:31:24.332Z,20.29
2023-04-19T10:33:58.474Z,20.43
2023-04-19T10:36:28.603Z,20.14
2023-04-19T10:38:57.306Z,19.99
2023-04-19T10:41:58.452Z,19.75
2023-04-19T10:44:26.296Z,20.06
2023-04-19T10:46:55.093Z,19.89
2023-04-19T10:49:48.432Z,19.78
2023-04-19T10:52:32.147Z,19.53
2023-04-19T10:55:05.133Z,19.28
2023-04-19T10:58:04.082Z,19.22
2023-04-19T11:00:33.686Z,19.22
2023-04-19T11:03:42.052Z,19.25
2023-04-19T11:06:20.518Z,19.41
2023-04-19T11:08:48.386Z,19.24
2023-04-19T11:11:17.196Z,19.02
2023-04-19T11:13:48.251Z,18.86
2023-04-19T11:16:18.314Z,18.64
2023-04-19T11:18:49.533Z,18.40
2023-04-19T11:21:20.823Z,18.30
2023-04-19T11:23:50.406Z,18.42
2023-04-19T11:26:18.749Z,18.60
2023-04-19T11:28:48.098Z,18.35
2023-04-19T11:31:16.306Z,18.39
2023-04-19T11:33:44.521Z,18.29
2023-04-19T11:36:13.749Z,18.17
2023-04-19T11:38:41.819Z,17.98
2023-04-19T11:41:09.828Z,17.89
2023-04-19T11:43:38.519Z,17.80
2023-04-19T11:46:07.538Z,17.69
2023-04-19T11:48:38.101Z,17.68
2023-04-19T11:51:06.884Z,17.66
2023-04-19T11:53:35.931Z,17.60
2023-04-19T11:56:08.822Z,17.51
2023-04-19T11:58:45.777Z,17.32
2023-04-19T12:01:16.105Z,17.08
2023-04-19T12:03:48.072Z,17.08
2023-04-19T12:06:39.364Z,16.98
2023-04-19T12:09:11.743Z,16.66
2023-04-19T12:11:47.364Z,16.64
2023-04-19T12:14:17.195Z,16.49
2023-04-19T12:16:46.616Z,16.39
2023-04-19T12:19:20.869Z,16.45
2023-04-19T12:21:49.279Z,16.45
2023-04-19T12:24:17.618Z,16.26
2023-04-19T12:26:56.663Z,16.04
2023-04-19T12:29:28.393Z,15.93
2023-04-19T12:31:56.692Z,15.77
2023-04-19T12:34:25.326Z,15.60
2023-04-19T12:36:53.331Z,15.38
2023-04-19T12:39:24.155Z,15.04
2023-04-19T12:41:52.404Z,14.51
2023-04-19T12:44:20.548Z,14.16
2023-04-19T12:46:48.910Z,13.96
2023-04-19T12:49:20.559Z,13.76
2023-04-19T12:51:52.744Z,13.69
2023-04-19T12:54:22.120Z,13.52
2023-04-19T12:56:50.818Z,13.29
2023-04-19T12:59:19.502Z,13.15
2023-04-19T13:01:47.732Z,12.93
2023-04-19T13:04:16.413Z,12.63
2023-04-19T13:06:50.126Z,12.52
2023-04-19T13:09:18.699Z,12.38
2023-04-19T13:11:46.773Z,12.27
2023-04-19T13:14:15.450Z,12.17
2023-04-19T13:16:43.773Z,12.18
2023-04-19T13:19:11.967Z,12.18
2023-04-19T13:21:40.133Z,12.17
2023-04-19T13:24:08.971Z,12.21
2023-04-19T13:26:37.858Z,12.29
2023-04-19T13:29:10.595Z,12.36
2023-04-19T13:31:39.003Z,12.40
2023-04-19T13:34:07.319Z,12.44
2023-04-19T13:36:37.141Z,12.43
2023-04-19T13:39:08.203Z,12.48
2023-04-19T13:41:37.516Z,12.51
2023-04-19T13:44:06.671Z,12.41
2023-04-19T13:46:38.056Z,12.37
2023-04-19T13:49:06.108Z,12.61
2023-04-19T13:51:46.372Z,12.95
2023-04-19T13:54:21.584Z,13.16
2023-04-19T13:56:52.104Z,13.29
2023-04-19T13:59:22.084Z,13.24
2023-04-19T14:01:50.899Z,13.18
2023-04-19T14:04:21.699Z,13.18
2023-04-19T14:06:51.775Z,13.32
2023-04-19T14:09:19.807Z,13.27
2023-04-19T14:11:49.255Z,13.32
2023-04-19T14:14:17.913Z,13.28
2023-04-19T14:16:46.747Z,13.24
2023-04-19T14:19:15.540Z,13.19
2023-04-19T14:21:43.401Z,13.15
2023-04-19T14:24:14.736Z,13.13
2023-04-19T14:26:43.620Z,13.08
2023-04-19T14:29:12.133Z,12.98
2023-04-19T14:31:40.186Z,12.92
2023-04-19T14:34:08.484Z,12.83
2023-04-19T14:36:42.495Z,12.68
2023-04-19T14:39:10.617Z,12.54
2023-04-19T14:41:38.862Z,12.48
2023-04-19T14:44:07.184Z,12.39
2023-04-19T14:46:35.868Z,12.04
2023-04-19T14:49:06.523Z,11.95
2023-04-19T14:51:34.939Z,11.86
2023-04-19T14:54:03.433Z,11.82
2023-04-19T14:56:33.249Z,11.75
2023-04-19T14:59:01.647Z,11.77
2023-04-19T15:01:29.961Z,11.72
2023-04-19T15:03:58.139Z,11.67
2023-04-19T15:06:26.336Z,11.51
2023-04-19T15:08:55.588Z,11.47
2023-04-19T15:11:23.881Z,11.42
2023-04-19T15:13:52.039Z,11.40
2023-04-19T15:16:20.198Z,11.33
2023-04-19T15:18:48.500Z,11.28
2023-04-19T15:21:21.187Z,11.30
2023-04-19T15:23:50.649Z,11.15
2023-04-19T15:26:18.996Z,11.02
2023-04-19T15:28:48.448Z,10.86
2023-04-19T15:31:16.894Z,10.73
2023-04-19T15:33:45.418Z,10.77
2023-04-19T15:36:13.966Z,10.79
2023-04-19T15:38:43.917Z,10.81
2023-04-19T15:41:12.642Z,10.66
2023-04-19T15:43:40.872Z,10.60
2023-04-19T15:46:13.655Z,10.67
2023-04-19T15:48:43.136Z,10.67
2023-04-19T15:51:12.269Z,10.63
2023-04-19T15:53:40.925Z,10.55
2023-04-19T15:56:09.564Z,10.42
2023-04-19T15:58:38.034Z,10.42
2023-04-19T16:01:12.810Z,10.41
2023-04-19T16:03:41.722Z,10.42
2023-04-19T16:06:10.323Z,10.51
2023-04-19T16:08:40.059Z,10.47
2023-04-19T16:11:08.891Z,10.54
2023-04-19T16:13:38.345Z,10.49
2023-04-19T16:16:07.180Z,10.45
2023-04-19T16:18:35.396Z,10.42
2023-04-19T16:21:04.207Z,10.45
2023-04-19T16:23:32.895Z,10.40
2023-04-19T16:26:00.969Z,10.43
2023-04-19T16:28:32.050Z,10.44
2023-04-19T16:31:00.360Z,10.29
2023-04-19T16:33:28.685Z,10.29
2023-04-19T16:35:57.215Z,10.27
2023-04-19T16:38:25.549Z,10.27
2023-04-19T16:40:55.115Z,10.30
2023-04-19T16:43:24.347Z,10.26
2023-04-19T16:45:52.826Z,10.26
2023-04-19T16:48:21.062Z,10.24
2023-04-19T16:50:50.243Z,10.29
2023-04-19T16:53:18.664Z,10.27
2023-04-19T16:55:46.876Z,10.28
2023-04-19T16:58:15.045Z,10.28
2023-04-19T17:00:43.845Z,10.27
2023-04-19T17:03:12.533Z,10.33
2023-04-19T17:05:43.221Z,10.37
2023-04-19T17:08:12.694Z,10.37
2023-04-19T17:10:42.533Z,10.40
2023-04-19T17:13:10.936Z,10.43
2023-04-19T17:15:39.832Z,10.45
2023-04-19T17:18:08.356Z,10.46
2023-04-19T17:20:37.043Z,10.50
2023-04-19T17:23:05.392Z,10.50
2023-04-19T17:25:33.628Z,10.49
2023-04-19T17:28:02.214Z,10.54
2023-04-19T17:30:30.813Z,10.54
2023-04-19T17:32:59.317Z,10.55
2023-04-19T17:35:29.886Z,10.57
2023-04-19T17:37:57.905Z,10.52
2023-04-19T17:40:27.967Z,10.54
2023-04-19T17:42:57.426Z,10.52
2023-04-19T17:45:25.554Z,10.49
2023-04-19T17:47:57.387Z,10.51
2023-04-19T17:50:26.925Z,10.49
2023-04-19T17:52:59.357Z,10.54
2023-04-19T17:55:29.513Z,10.51
2023-04-19T17:57:58.097Z,10.53
2023-04-19T18:00:26.984Z,10.57
2023-04-19T18:02:57.241Z,10.60
2023-04-19T18:05:26.396Z,10.61
2023-04-19T18:07:55.285Z,10.59
2023-04-19T18:10:26.100Z,10.64
2023-04-19T18:12:54.965Z,10.63
2023-04-19T18:15:23.176Z,10.63
2023-04-19T18:17:51.825Z,10.60
2023-04-19T18:20:21.708Z,10.46
2023-04-19T18:22:50.724Z,10.62
2023-04-19T18:25:21.874Z,10.65
2023-04-19T18:27:50.686Z,10.69
2023-04-19T18:30:18.977Z,10.72
2023-04-19T18:32:48.141Z,10.63
2023-04-19T18:35:16.544Z,10.61
2023-04-19T18:37:44.917Z,10.60
2023-04-19T18:40:13.876Z,10.63
2023-04-19T18:42:43.883Z,10.60
2023-04-19T18:45:12.358Z,10.59
2023-04-19T18:47:43.852Z,10.54
2023-04-19T18:50:18.911Z,10.55
2023-04-19T18:52:48.060Z,10.48
2023-04-19T18:55:16.413Z,10.50
2023-04-19T18:57:44.405Z,10.53
2023-04-19T19:00:13.600Z,10.54
2023-04-19T19:02:43.791Z,10.57
2023-04-19T19:05:14.018Z,10.55
2023-04-19T19:07:44.435Z,10.55
2023-04-19T19:10:20.969Z,10.58
2023-04-19T19:12:52.122Z,10.52
2023-04-19T19:15:20.213Z,10.53
2023-04-19T19:17:50.380Z,10.54
2023-04-19T19:20:19.968Z,10.59
2023-04-19T19:22:48.664Z,10.57
2023-04-19T19:25:16.664Z,10.57
2023-04-19T19:28:02.778Z,10.62
2023-04-19T19:30:35.110Z,10.58
2023-04-19T19:33:05.205Z,10.63
2023-04-19T19:35:34.236Z,10.57
2023-04-19T19:38:02.890Z,10.56
2023-04-19T19:40:32.871Z,10.52
2023-04-19T19:43:02.355Z,10.46
2023-04-19T19:45:32.069Z,10.54
2023-04-19T19:48:02.021Z,10.60
2023-04-19T19:53:01.955Z,10.66
2023-04-19T19:55:30.602Z,10.69
2023-04-19T20:03:03.211Z,10.66
2023-04-19T20:05:32.100Z,10.61
2023-04-19T20:08:13.983Z,10.63
2023-04-19T20:10:43.299Z,10.66
2023-04-19T20:13:13.499Z,10.57
2023-04-19T20:15:47.598Z,10.65
2023-04-19T20:18:17.517Z,10.67
2023-04-19T20:20:45.855Z,10.70
2023-04-19T20:23:16.584Z,10.74
2023-04-19T20:25:44.615Z,10.77
2023-04-19T20:28:13.141Z,10.83
2023-04-19T20:30:41.841Z,10.82
2023-04-19T20:33:10.151Z,10.82
2023-04-19T20:35:38.416Z,10.78
2023-04-19T20:38:08.099Z,10.75
2023-04-19T20:40:36.575Z,10.77
2023-04-19T20:43:04.814Z,10.65
2023-04-19T20:45:34.366Z,10.69
2023-04-19T20:48:03.446Z,10.70
2023-04-19T20:50:31.760Z,10.69
2023-04-19T20:53:00.123Z,10.70
2023-04-19T20:55:28.454Z,10.75
2023-04-19T20:57:56.624Z,10.77
2023-04-19T21:00:25.261Z,10.71
2023-04-19T21:02:54.189Z,10.74
2023-04-19T21:05:22.605Z,10.77
2023-04-19T21:07:50.684Z,10.76
2023-04-19T21:10:19.762Z,10.79
2023-04-19T21:12:48.564Z,10.79
2023-04-19T21:15:17.167Z,10.82
2023-04-19T21:17:45.628Z,10.83
2023-04-19T21:20:18.441Z,10.85
2023-04-19T21:22:47.525Z,10.73
2023-04-19T21:25:15.770Z,10.81
2023-04-19T21:27:47.098Z,10.74
2023-04-19T21:30:15.789Z,10.80
2023-04-19T21:32:46.346Z,10.78
2023-04-19T21:35:14.884Z,10.79
2023-04-19T21:37:43.638Z,10.78
2023-04-19T21:40:14.310Z,10.69
2023-04-19T21:42:42.277Z,10.65
2023-04-19T21:45:16.314Z,10.67
2023-04-19T21:47:44.699Z,10.68
2023-04-19T21:50:13.219Z,10.72
2023-04-19T21:52:41.956Z,10.70
2023-04-19T21:55:10.326Z,10.66
2023-04-19T21:57:38.774Z,10.65
2023-04-19T22:00:11.743Z,10.58
2023-04-19T22:02:42.231Z,10.54
2023-04-19T22:05:10.598Z,10.59
2023-04-19T22:07:40.397Z,10.62
2023-04-19T22:10:09.398Z,10.62
2023-04-19T22:12:47.959Z,10.58
2023-04-19T22:15:27.335Z,10.54
2023-04-19T22:17:57.813Z,10.55
2023-04-19T22:20:27.143Z,10.58
2023-04-19T22:22:56.734Z,10.53
2023-04-19T22:25:25.178Z,10.52
2023-04-19T22:27:53.736Z,10.57
2023-04-19T22:30:21.885Z,10.54
2023-04-19T22:32:52.608Z,10.57
2023-04-19T22:35:22.666Z,10.59
2023-04-19T22:37:51.295Z,10.59
2023-04-19T22:40:19.443Z,10.58
2023-04-19T22:42:47.643Z,10.53
2023-04-19T22:45:16.043Z,10.49
2023-04-19T22:47:44.367Z,10.54
2023-04-19T22:50:12.620Z,10.48
2023-04-19T22:52:44.799Z,10.55
2023-04-19T22:55:13.256Z,10.51
2023-04-19T22:57:43.354Z,10.58
2023-04-19T23:00:13.811Z,10.56
2023-04-19T23:02:43.102Z,10.58
2023-04-19T23:05:11.765Z,10.52
2023-04-19T23:07:42.287Z,10.54
2023-04-19T23:10:11.025Z,10.58
2023-04-19T23:12:39.558Z,10.45
2023-04-19T23:15:08.865Z,10.54
2023-04-19T23:17:42.467Z,10.58
2023-04-19T23:20:11.647Z,10.59
2023-04-19T23:22:40.692Z,10.59
2023-04-19T23:25:09.809Z,10.60
2023-04-19T23:27:38.488Z,10.62
2023-04-19T23:30:07.996Z,10.65
2023-04-19T23:32:36.493Z,10.63
2023-04-19T23:35:05.070Z,10.72
2023-04-19T23:37:33.810Z,10.70
2023-04-19T23:40:01.953Z,10.71
2023-04-19T23:42:30.217Z,10.72
2023-04-19T23:44:58.128Z,10.73
2023-04-19T23:47:29.250Z,10.76
2023-04-19T23:49:57.591Z,10.76
2023-04-19T23:52:25.955Z,10.74
2023-04-19T23:54:54.209Z,10.71
2023-04-19T23:57:26.389Z,10.72
2023-04-19T23:59:54.588Z,10.78
